Aviation Digital Data Service (ADDS)

Output produced by METARs form (0640 UTC 24 March 2019)
found at http://www.aviationweather.gov/metar/data/
 
KABY 240553Z AUTO 00000KT 10SM CLR 09/04 A3026 RMK AO2 SLP246 T00940039 10194 20094 50000
KABY 240520Z 2406/2506 00000KT P6SM SKC 
     FM241500 17007KT P6SM SCT250 
     FM250000 20003KT P6SM SCT250
       
KAMG 240553Z AUTO 00000KT 10SM CLR 10/08 A3027 RMK AO2 SLP246 T01000078 10161 20094 58002
KACJ 240615Z AUTO 00000KT 10SM CLR 10/06 A3026 RMK AO2
KAHN 240551Z AUTO 00000KT 10SM CLR 10/M01 A3026 RMK AO2 SLP247 T01001006 10161 20094 53000
KAHN 240532Z 2406/2506 14004KT P6SM FEW250 
     FM241700 18004KT P6SM FEW050 SCT250 
     FM242300 20005KT P6SM BKN250 
     FM250300 VRB03KT P6SM SCT120
       
KFFC 240553Z AUTO 00000KT 10SM CLR 06/03 A3025 RMK AO2 SLP245 T00610033 10156 20061 58002
KRYY 240548Z AUTO 00000KT 10SM CLR 06/00 A3026 RMK AO2 SLP967 T00610000 10172 20061 58003
KRYY 240532Z 2406/2506 VRB03KT P6SM SCT250 
     FM241600 17006KT P6SM FEW050 SCT250 
     FM242300 19006KT P6SM SCT250 
     FM250100 VRB03KT P6SM FEW120
       
KPDK 240553Z AUTO 00000KT 7SM CLR 07/01 A3025 RMK AO2 SLP243 T00670011 10178 20061 58005
KPDK 240532Z 2406/2506 00000KT P6SM SCT250 
     FM241600 18004KT P6SM FEW050 BKN250 
     FM250100 VRB03KT P6SM FEW150
       
KFTY 240553Z 00000KT 10SM CLR 07/03 A3025 RMK AO2 SLP241 T00670028 10178 20061 58003
KFTY 240532Z 2406/2506 04003KT P6SM SCT250 
     FM241600 18004KT P6SM FEW050 BKN250 
     FM250200 00000KT P6SM SCT120 
     FM250500 VRB03KT P6SM BKN100
       
KLZU 240456Z AUTO 00000KT 10SM CLR 08/03 A3026 RMK AO2 SLP256 T00780033 402110011
KATL 240552Z 09004KT 10SM SCT200 BKN250 14/M04 A3025 RMK AO2 SLP241 T01391039 10189 20133 58003
KATL 240532Z 2406/2512 04004KT P6SM BKN250 
     FM241400 16005KT P6SM SCT250 
     FM241800 19008G15KT P6SM FEW050 BKN250 
     FM250200 VRB03KT P6SM SCT200 
     FM250500 20004KT P6SM BKN100
       
KCCO 240615Z AUTO 00000KT 10SM CLR 11/01 A3024 RMK AO2 T01140014
KAGS 240553Z AUTO 00000KT 10SM CLR 07/04 A3029 RMK AO2 SLP256 T00720044 10150 20067 51005
KAGS 240531Z 2406/2506 00000KT P6SM BKN250 
     FM241500 19008KT P6SM SCT250 
     FM250000 17003KT P6SM FEW050 BKN250
       
KDNL 240553Z AUTO 13004KT 10SM CLR 12/03 A3029 RMK AO2 SLP256 T01220033 10194 20117 53004
KDNL 240531Z 2406/2506 VRB03KT P6SM BKN250 
     FM241500 19008KT P6SM BKN250 
     FM250000 16004KT P6SM FEW050 BKN250
       
KBGE 240615Z 10SM 11/06 A3023 RMK AO2 PWINO
KBHC 240615Z AUTO 00000KT 10SM CLR 08/07 A3027 RMK AO2
KDZJ 240635Z AUTO 17003KT 10SM CLR 03/M02 A3027 RMK AO2 T00261020
KBIJ 240615Z AUTO 00000KT 10SM CLR 06/05 A3025 RMK AO2
KBQK 240635Z AUTO 00000KT 1SM BR VV007 08/07 A3027 RMK AO2
KSSI 240553Z AUTO 10005KT 10SM CLR 17/13 A3027 RMK AO2 SLP250 T01670133 10167 20161 58002
KSSI 240523Z 2406/2506 09005KT P6SM BKN250 
     FM241400 09008KT P6SM SCT030 BKN250 
     FM250100 12005KT P6SM SCT250
       
KCXU 240635Z AUTO 00000KT 10SM CLR 11/05 A3025 RMK AO1 T01090053
K18A 240635Z AUTO 00000KT 10SM CLR 06/00 A3027 RMK AO2 T00551001
KCNI 240635Z AUTO 00000KT 10SM CLR 07/M05 A3027 RMK AO2
KCTJ 240615Z AUTO 00000KT 10SM CLR 06/M02 A3027 RMK AO2 T00581023
KVPC 240553Z AUTO 00000KT 10SM CLR 04/M01 A3026 RMK AO2 SLP241 T00391011 10128 20028 56003
KCWV 240615Z AUTO 00000KT 10SM CLR 08/07 A3028 RMK AO2 T00760070
K48A 240615Z AUTO 15003KT 10SM CLR 10/07 A3026 RMK AO2 T01000068
KCSG 240551Z AUTO 00000KT 10SM CLR 11/03 A3023 RMK AO2 SLP234 T01060033 10211 20094 58001
KCSG 240532Z 2406/2506 00000KT P6SM SCT250 
     FM241500 16004KT P6SM SKC 
     FM241700 20007KT P6SM FEW050 SCT250 
     FM250100 VRB03KT P6SM FEW200
       
KCKF 240615Z AUTO 16008KT 10SM CLR 12/08 A3027 RMK AO2 T01240075
KAJR 240635Z AUTO 00000KT 10SM CLR 06/01 A3026 RMK AO2 T00630007
KCVC 240635Z AUTO 00000KT 10SM CLR 08/02 A3025 RMK AO2 PNO
KPUJ 240635Z AUTO 00000KT 10SM CLR 11/M07 A3024 RMK AO2
KDNN 240635Z AUTO 00000KT 10SM CLR 02/00 A3027 RMK AO2
K17J 240615Z AUTO 00000KT 10SM CLR 10/06 A3023 RMK AO2 T00960061
KDQH 240615Z AUTO 00000KT 10SM CLR 10/09 A3028 RMK AO2 T01040087
KDBN 240615Z AUTO 00000KT 10SM 06/05 A3029 RMK AO2
KEZM 240615Z AUTO 00000KT 10SM CLR 09/07 A3030 RMK AO2 T00930069
K49A 240615Z AUTO 00000KT 10SM CLR 05/M01 A3028 RMK AO2 T00451013
KFZG 240615Z AUTO 00000KT 10SM CLR 11/09 A3030 RMK AO2 T01120090 PWINO
KGVL 240553Z AUTO 11003KT 10SM CLR 12/M01 A3027 RMK AO2 SLP245 T01221006 10167 20094 56001
K3J7 240615Z AUTO 12005KT 10SM CLR 13/00 A3023 RMK AO2
K6A2 240635Z AUTO 00000KT 10SM CLR 07/00 A3025 RMK AO2
KAZE 240615Z AUTO 00000KT 10SM CLR 13/09 A3026 RMK AO2 T01260086
KLHW 240456Z AUTO 00000KT 10SM CLR 08/07 A3027 RMK AO2 SLP253 T00810066 402080041 $
KJZP 240615Z AUTO 00000KT 10SM CLR 09/M07 A3028 RMK AO2 T00911071 PNO
KJES 240639Z AUTO 00000KT 10SM CLR 09/07 A3027 RMK AO2
K9A5 240615Z AUTO 00000KT 10SM CLR 04/00 A3026 RMK AO2 T00390002
KLGC 240615Z AUTO 00000KT 10SM CLR 06/04 A3024 RMK AO2 T00610039
K2J3 240615Z AUTO 00000KT 10SM CLR 10/06 A3028 RMK AO2 T00990055
KMCN 240553Z AUTO 11003KT 10SM CLR 07/04 A3026 RMK AO2 SLP243 T00670044 10194 20067 50001 $
KMCN 240532Z 2406/2506 00000KT P6SM SCT250 
     FM241600 16005KT P6SM FEW050 FEW250 
     FM242300 19006KT P6SM SCT250 
     FM250100 00000KT P6SM FEW200
       
KMLJ 240635Z AUTO 00000KT 10SM CLR 10/06 A3027 RMK AO2
K2J5 240615Z AUTO 00000KT 10SM CLR 08/05 A3028 RMK AO2 PWINO T00770045
KD73 240610Z AUTO 00000KT 10SM CLR 06/04 A3026 RMK AO2 T00600037
KMGR 240615Z AUTO 00000KT 10SM CLR 12/05 A3026 RMK AO2
KPXE 240635Z AUTO 14006KT 10SM CLR 10/05 A3025 RMK AO2 T01030048
KRMG 240553Z AUTO 03003KT 10SM CLR 06/01 A3024 RMK AO2 SLP236 T00560011 10172 20050 58004
KSAV 240553Z AUTO 00000KT 10SM CLR 09/07 A3030 RMK AO2 SLP258 T00890067 10156 20083 50003
KSAV 240521Z 2406/2506 00000KT P6SM FEW250 
     FM241500 13007KT P6SM FEW250 
     FM242000 15011G17KT P6SM FEW250 
     FM250000 14005KT P6SM SCT250
       
KTBR 240615Z AUTO 00000KT 10SM CLR 07/06 A3029 RMK AO2 T00700058
KSBO 240615Z AUTO 12003KT 10SM CLR 10/07 A3028 RMK AO2
KJYL 240635Z AUTO 00000KT 10SM CLR 07/06 A3029 RMK AO2 T00670055
KOPN 240615Z AUTO 11003KT 10SM CLR 07/01 A3026 RMK AO2
KTVI 240635Z AUTO 00000KT 10SM CLR 10/06 A3026 RMK AO2
KHQU 240610Z AUTO 00000KT 10SM CLR 06/04 A3032 RMK AO2 T00580038
KTMA 240635Z AUTO 13003KT 10SM CLR 11/09 A3026 RMK AO2 T01120092
KTOC 240615Z AUTO 00000KT 10SM CLR 08/00 A3028 RMK AO2 T00750000
KVLD 240553Z AUTO 00000KT 10SM CLR 12/06 A3026 RMK AO2 SLP254 T01220061 10167 20089 50006
KVLD 240520Z 2406/2506 00000KT P6SM SKC 
     FM241500 17006KT P6SM SCT250 
     FM250000 21003KT P6SM SCT250
       
KVDI 240615Z AUTO 08003KT 10SM CLR 11/07 A3027 RMK AO2
KAYS 240635Z AUTO 00000KT 10SM CLR 10/08 A3026 RMK AO2 T01000075
KWDR 240610Z AUTO 00000KT 10SM CLR 09/01 A3029 RMK AO2